createdAt,value
2023-05-14T00:00:30.793Z,74.17
2023-05-14T00:01:33.715Z,74.55
2023-05-14T00:02:36.665Z,74.49
2023-05-14T00:03:41.328Z,74.45
2023-05-14T00:04:44.422Z,74.76
2023-05-14T00:05:47.248Z,74.62
2023-05-14T00:06:50.198Z,74.83
2023-05-14T00:07:52.994Z,75.22
2023-05-14T00:08:57.199Z,75.48
2023-05-14T00:10:01.111Z,75.41
2023-05-14T00:11:04.111Z,75.53
2023-05-14T00:12:07.272Z,75.44
2023-05-14T00:13:10.271Z,75.84
2023-05-14T00:14:13.309Z,75.75
2023-05-14T00:15:16.117Z,75.67
2023-05-14T00:16:19.009Z,75.65
2023-05-14T00:17:21.884Z,75.62
2023-05-14T00:18:24.719Z,75.69
2023-05-14T00:19:27.946Z,75.74
2023-05-14T00:20:30.752Z,75.69
2023-05-14T00:21:33.635Z,75.56
2023-05-14T00:22:40.218Z,75.65
2023-05-14T00:23:43.042Z,75.55
2023-05-14T00:24:45.893Z,75.46
2023-05-14T00:25:48.752Z,75.31
2023-05-14T00:26:51.619Z,75.59
2023-05-14T00:27:54.451Z,75.61
2023-05-14T00:28:57.359Z,75.27
2023-05-14T00:30:00.216Z,75.53
2023-05-14T00:31:03.068Z,75.26
2023-05-14T00:32:06.196Z,75.52
2023-05-14T00:33:09.502Z,75.29
2023-05-14T00:34:12.433Z,75.35
2023-05-14T00:35:15.338Z,75.14
2023-05-14T00:36:18.293Z,75.18
2023-05-14T00:37:21.082Z,75.26
2023-05-14T00:38:25.489Z,75.62
2023-05-14T00:39:28.287Z,75.54
2023-05-14T00:40:31.376Z,75.73
2023-05-14T00:41:34.603Z,75.81
2023-05-14T00:42:37.495Z,76.06
2023-05-14T00:43:40.301Z,76.17
2023-05-14T00:44:43.195Z,76.08
2023-05-14T00:45:46.504Z,76.03
2023-05-14T00:46:49.975Z,76.30
2023-05-14T00:47:53.289Z,76.24
2023-05-14T00:48:56.729Z,76.25
2023-05-14T00:49:59.588Z,76.07
2023-05-14T00:51:02.733Z,76.23
2023-05-14T00:52:05.888Z,76.04
2023-05-14T00:53:11.563Z,76.23
2023-05-14T00:54:16.894Z,76.37
2023-05-14T00:55:20.601Z,75.83
2023-05-14T00:56:23.777Z,75.85
2023-05-14T00:57:26.655Z,76.02
2023-05-14T00:58:29.976Z,75.98
2023-05-14T00:59:33.433Z,75.71
2023-05-14T01:00:37.003Z,75.72
2023-05-14T01:01:40.506Z,75.71
2023-05-14T01:02:43.523Z,75.67
2023-05-14T01:03:46.930Z,75.85
2023-05-14T01:04:50.149Z,75.90
2023-05-14T01:06:04.981Z,75.59
2023-05-14T01:07:16.728Z,75.72
2023-05-14T01:09:13.816Z,75.79
2023-05-14T01:10:26.348Z,75.57
2023-05-14T01:11:41.489Z,75.47
2023-05-14T01:12:59.634Z,75.58
2023-05-14T01:14:23.317Z,75.31
2023-05-14T01:15:30.222Z,75.44
2023-05-14T01:16:35.210Z,75.57
2023-05-14T01:17:44.163Z,75.72
2023-05-14T01:18:49.852Z,75.61
2023-05-14T01:19:53.716Z,75.51
2023-05-14T01:20:56.852Z,75.66
2023-05-14T01:21:59.741Z,75.58
2023-05-14T01:23:02.615Z,75.41
2023-05-14T01:24:05.998Z,75.10
2023-05-14T01:25:09.400Z,75.13
2023-05-14T01:26:12.277Z,75.26
2023-05-14T01:27:49.299Z,75.18
2023-05-14T01:28:54.119Z,75.03
2023-05-14T01:30:09.483Z,75.01
2023-05-14T01:31:19.731Z,74.92
2023-05-14T01:32:25.770Z,75.30
2023-05-14T01:33:30.766Z,75.20
2023-05-14T01:34:36.465Z,75.23
2023-05-14T01:35:39.604Z,75.30
2023-05-14T01:36:43.465Z,75.48
2023-05-14T01:37:48.440Z,75.26
2023-05-14T01:38:52.487Z,75.51
2023-05-14T01:39:57.776Z,75.45
2023-05-14T01:41:02.073Z,75.52
2023-05-14T01:42:06.024Z,75.24
2023-05-14T01:43:09.858Z,75.56
2023-05-14T01:44:13.177Z,75.45
2023-05-14T01:45:16.437Z,75.59
2023-05-14T01:46:20.977Z,75.74
2023-05-14T01:47:24.033Z,75.56
2023-05-14T01:48:26.865Z,75.55
2023-05-14T01:49:29.794Z,75.55
2023-05-14T01:50:32.749Z,75.49
2023-05-14T01:51:35.808Z,75.37
2023-05-14T01:52:38.604Z,75.30
2023-05-14T01:53:41.785Z,75.42
2023-05-14T01:54:44.618Z,75.42
2023-05-14T01:55:47.411Z,75.39
2023-05-14T01:56:50.260Z,75.52
2023-05-14T01:57:54.319Z,75.55
2023-05-14T01:58:58.114Z,75.44
2023-05-14T02:00:00.949Z,75.23
2023-05-14T02:01:04.050Z,75.26
2023-05-14T02:02:07.045Z,75.38
2023-05-14T02:03:09.922Z,75.06
2023-05-14T02:04:12.786Z,75.12
2023-05-14T02:05:15.649Z,74.87
2023-05-14T02:06:18.499Z,74.76
2023-05-14T02:07:21.469Z,74.94
2023-05-14T02:08:24.344Z,74.94
2023-05-14T02:09:27.185Z,74.96
2023-05-14T02:10:29.983Z,74.98
2023-05-14T02:11:32.799Z,74.90
2023-05-14T02:12:35.686Z,74.80
2023-05-14T02:13:38.566Z,74.90
2023-05-14T02:14:41.697Z,74.89
2023-05-14T02:15:44.497Z,74.72
2023-05-14T02:16:47.260Z,74.71
2023-05-14T02:17:50.104Z,74.60
2023-05-14T02:18:53.049Z,74.11
2023-05-14T02:19:55.945Z,74.33
2023-05-14T02:20:59.162Z,74.24
2023-05-14T02:22:02.505Z,74.17
2023-05-14T02:23:05.486Z,74.42
2023-05-14T02:24:08.476Z,74.23
2023-05-14T02:25:11.815Z,74.27
2023-05-14T02:26:15.295Z,74.32
2023-05-14T02:27:18.111Z,74.23
2023-05-14T02:28:20.948Z,74.22
2023-05-14T02:29:23.852Z,74.39
2023-05-14T02:30:26.764Z,74.31
2023-05-14T02:31:29.733Z,74.23
2023-05-14T02:32:32.648Z,73.99
2023-05-14T02:33:35.644Z,74.05
2023-05-14T02:34:38.472Z,73.98
2023-05-14T02:35:41.354Z,73.85
2023-05-14T02:36:44.194Z,73.61
2023-05-14T02:37:47.276Z,73.75
2023-05-14T02:38:50.182Z,73.73
2023-05-14T02:39:53.611Z,73.89
2023-05-14T02:40:56.503Z,73.35
2023-05-14T02:41:59.326Z,73.73
2023-05-14T02:43:02.159Z,73.68
2023-05-14T02:44:05.095Z,73.42
2023-05-14T02:45:08.468Z,73.58
2023-05-14T02:46:11.364Z,73.59
2023-05-14T02:47:14.197Z,73.51
2023-05-14T02:48:17.013Z,73.60
2023-05-14T02:49:19.858Z,73.64
2023-05-14T02:50:22.792Z,73.66
2023-05-14T02:51:25.850Z,73.68
2023-05-14T02:52:28.724Z,73.70
2023-05-14T02:53:31.684Z,73.69
2023-05-14T02:54:34.537Z,73.93
2023-05-14T02:55:37.690Z,74.25
2023-05-14T02:56:40.519Z,74.36
2023-05-14T02:57:43.320Z,74.52
2023-05-14T02:58:46.135Z,74.84
2023-05-14T02:59:48.984Z,74.60
2023-05-14T03:00:52.884Z,74.70
2023-05-14T03:01:56.464Z,75.02
2023-05-14T03:02:59.773Z,75.19
2023-05-14T03:04:03.063Z,75.21
2023-05-14T03:05:06.235Z,75.32
2023-05-14T03:06:09.214Z,75.48
2023-05-14T03:07:12.062Z,75.54
2023-05-14T03:08:14.913Z,75.50
2023-05-14T03:09:17.768Z,75.56
2023-05-14T03:10:21.651Z,75.47
2023-05-14T03:11:24.701Z,75.14
2023-05-14T03:12:28.186Z,75.26
2023-05-14T03:13:31.052Z,75.34
2023-05-14T03:14:33.859Z,75.34
2023-05-14T03:15:36.787Z,75.35
2023-05-14T03:16:41.300Z,75.40
2023-05-14T03:17:44.253Z,75.74
2023-05-14T03:18:47.326Z,75.63
2023-05-14T03:19:50.204Z,75.72
2023-05-14T03:20:52.991Z,75.48
2023-05-14T03:21:55.789Z,75.25
2023-05-14T03:22:58.751Z,75.20
2023-05-14T03:24:01.615Z,75.21
2023-05-14T03:25:04.520Z,75.01
2023-05-14T03:26:07.683Z,75.13
2023-05-14T03:27:10.534Z,75.11
2023-05-14T03:28:13.414Z,74.90
2023-05-14T03:29:19.204Z,75.14
2023-05-14T03:30:22.262Z,75.17
2023-05-14T03:31:25.420Z,75.21
2023-05-14T03:32:28.420Z,75.38
2023-05-14T03:33:31.378Z,75.19
2023-05-14T03:34:34.352Z,74.74
2023-05-14T03:35:37.171Z,74.88
2023-05-14T03:36:41.015Z,74.78
2023-05-14T03:37:43.786Z,74.92
2023-05-14T03:38:46.694Z,74.44
2023-05-14T03:39:49.527Z,74.72
2023-05-14T03:40:52.444Z,74.74
2023-05-14T03:41:55.246Z,74.33
2023-05-14T03:42:58.072Z,74.33
2023-05-14T03:44:01.003Z,74.42
2023-05-14T03:45:03.873Z,74.40
2023-05-14T03:46:06.743Z,74.29
2023-05-14T03:47:09.532Z,74.11
2023-05-14T03:48:12.502Z,73.84
2023-05-14T03:49:15.574Z,73.85
2023-05-14T03:50:18.417Z,73.93
2023-05-14T03:51:21.375Z,74.10
2023-05-14T03:52:24.229Z,73.72
2023-05-14T03:53:27.052Z,73.51
2023-05-14T03:54:30.064Z,73.46
2023-05-14T03:55:33.020Z,73.25
2023-05-14T03:56:35.897Z,73.28
2023-05-14T03:57:38.988Z,73.22
2023-05-14T03:58:42.019Z,73.11
2023-05-14T03:59:44.901Z,73.10
2023-05-14T04:00:47.795Z,72.76
2023-05-14T04:01:52.097Z,72.69
2023-05-14T04:02:55.065Z,72.73
2023-05-14T04:03:58.085Z,72.74
2023-05-14T04:05:01.135Z,72.74
2023-05-14T04:06:03.919Z,72.68
2023-05-14T04:07:06.758Z,72.52
2023-05-14T04:08:09.546Z,72.47
2023-05-14T04:09:12.412Z,72.50
2023-05-14T04:10:15.514Z,72.54
2023-05-14T04:11:18.413Z,72.31
2023-05-14T04:12:21.287Z,72.48
2023-05-14T04:13:24.153Z,72.55
2023-05-14T04:14:27.346Z,72.52
2023-05-14T04:15:30.245Z,72.39
2023-05-14T04:16:33.111Z,72.42
2023-05-14T04:17:35.923Z,72.41
2023-05-14T04:18:38.834Z,72.29
2023-05-14T04:19:41.756Z,72.17
2023-05-14T04:20:44.628Z,72.25
2023-05-14T04:21:47.454Z,72.25
2023-05-14T04:22:50.291Z,72.10
2023-05-14T04:23:53.087Z,72.34
2023-05-14T04:24:55.908Z,72.13
2023-05-14T04:25:59.440Z,72.16
2023-05-14T04:27:02.280Z,72.51
2023-05-14T04:28:05.204Z,72.37
2023-05-14T04:29:08.126Z,72.09
2023-05-14T04:30:11.558Z,72.20
2023-05-14T04:31:14.795Z,72.19
2023-05-14T04:32:18.877Z,72.32
2023-05-14T04:33:21.693Z,72.18
2023-05-14T04:34:24.526Z,71.83
2023-05-14T04:35:27.359Z,71.90
2023-05-14T04:36:30.304Z,71.98
2023-05-14T04:37:33.229Z,72.00
2023-05-14T04:38:36.144Z,72.08
2023-05-14T04:39:39.601Z,72.11
2023-05-14T04:40:42.833Z,72.34
2023-05-14T04:41:45.675Z,72.14
2023-05-14T04:42:48.485Z,72.06
2023-05-14T04:43:52.055Z,72.09
2023-05-14T04:44:55.061Z,72.05
2023-05-14T04:45:57.982Z,72.05
2023-05-14T04:47:00.964Z,72.06
2023-05-14T04:48:05.357Z,71.96
2023-05-14T04:49:08.213Z,72.23
2023-05-14T04:50:11.661Z,72.18
2023-05-14T04:51:15.048Z,72.42
2023-05-14T04:52:17.889Z,72.44
2023-05-14T04:53:20.745Z,72.57
2023-05-14T04:54:24.078Z,72.66
2023-05-14T04:55:27.064Z,72.52
2023-05-14T04:56:29.861Z,72.53
2023-05-14T04:57:32.917Z,72.70
2023-05-14T04:58:35.851Z,72.73
2023-05-14T04:59:38.678Z,72.93
2023-05-14T05:00:42.125Z,72.88
2023-05-14T05:01:45.102Z,73.04
2023-05-14T05:02:48.057Z,73.32
2023-05-14T05:03:50.961Z,73.32
2023-05-14T05:04:53.786Z,73.29
2023-05-14T05:05:56.747Z,73.21
2023-05-14T05:06:59.669Z,73.34
2023-05-14T05:08:02.519Z,73.22
2023-05-14T05:09:05.817Z,73.02
2023-05-14T05:10:09.494Z,73.03
2023-05-14T05:11:12.319Z,73.13
2023-05-14T05:12:15.124Z,73.01
2023-05-14T05:13:18.397Z,72.95
2023-05-14T05:14:21.361Z,73.45
2023-05-14T05:15:26.401Z,73.08
2023-05-14T05:16:29.727Z,73.24
2023-05-14T05:17:32.807Z,73.34
2023-05-14T05:18:35.836Z,73.53
2023-05-14T05:19:43.842Z,73.40
2023-05-14T05:20:47.237Z,72.91
2023-05-14T05:21:50.228Z,72.91
2023-05-14T05:22:53.228Z,72.90
2023-05-14T05:23:56.034Z,73.12
2023-05-14T05:25:00.052Z,73.09
2023-05-14T05:26:02.878Z,72.93
2023-05-14T05:27:06.723Z,72.73
2023-05-14T05:28:09.503Z,72.97
2023-05-14T05:29:12.324Z,73.16
2023-05-14T05:30:15.198Z,73.24
2023-05-14T05:31:19.795Z,72.86
2023-05-14T05:32:22.961Z,73.05
2023-05-14T05:33:25.877Z,72.65
2023-05-14T05:34:29.020Z,73.10
2023-05-14T05:35:31.855Z,72.87
2023-05-14T05:36:35.117Z,72.98
2023-05-14T05:37:37.994Z,72.93
2023-05-14T05:38:40.785Z,72.65
2023-05-14T05:39:43.747Z,72.75
2023-05-14T05:40:46.606Z,72.64
2023-05-14T05:41:49.427Z,72.56
2023-05-14T05:42:52.308Z,72.81
2023-05-14T05:43:55.106Z,72.71
2023-05-14T05:44:58.037Z,72.34
2023-05-14T05:46:02.095Z,72.63
2023-05-14T05:47:05.261Z,72.73
2023-05-14T05:48:08.309Z,73.03
2023-05-14T05:49:11.151Z,73.17
2023-05-14T05:50:13.986Z,73.02
2023-05-14T05:51:16.900Z,73.11
2023-05-14T05:52:19.702Z,73.31
2023-05-14T06:07:29.362Z,73.50
2023-05-14T06:08:32.961Z,73.48
2023-05-14T06:09:35.812Z,73.08
2023-05-14T06:10:38.798Z,73.24
2023-05-14T06:11:48.416Z,73.48
2023-05-14T06:12:51.385Z,73.58
2023-05-14T06:13:54.222Z,73.37
2023-05-14T06:14:59.023Z,73.98
2023-05-14T06:16:01.936Z,73.63
2023-05-14T06:17:11.389Z,73.99
2023-05-14T06:18:14.348Z,74.29
2023-05-14T06:19:17.360Z,74.18
2023-05-14T06:20:20.678Z,74.35
2023-05-14T06:21:23.696Z,74.94
2023-05-14T06:22:33.412Z,75.16
2023-05-14T06:23:36.340Z,75.01
2023-05-14T06:24:39.220Z,75.24
2023-05-14T06:25:42.304Z,75.26
2023-05-14T06:26:45.128Z,75.27
2023-05-14T06:27:54.414Z,74.97
2023-05-14T06:28:57.335Z,75.59
2023-05-14T06:30:00.254Z,75.87
2023-05-14T06:31:03.184Z,75.98
2023-05-14T06:32:06.461Z,76.59
2023-05-14T06:33:15.439Z,76.65
2023-05-14T06:34:18.258Z,76.87
2023-05-14T06:35:21.231Z,76.94
2023-05-14T06:36:24.129Z,77.26
2023-05-14T06:37:26.926Z,77.21
2023-05-14T06:38:36.438Z,77.02
2023-05-14T06:39:39.731Z,77.16
2023-05-14T06:40:42.644Z,77.00
2023-05-14T06:41:45.534Z,77.19
2023-05-14T06:42:48.360Z,77.45
2023-05-14T06:43:57.480Z,77.36
2023-05-14T06:45:00.341Z,76.96
2023-05-14T06:46:03.279Z,77.16
2023-05-14T06:47:07.819Z,77.50
2023-05-14T06:48:11.514Z,77.85
2023-05-14T06:49:20.461Z,77.93
2023-05-14T06:50:23.523Z,77.89
2023-05-14T06:51:26.696Z,77.77
2023-05-14T06:52:29.562Z,77.64
2023-05-14T06:53:32.863Z,77.68
2023-05-14T06:54:42.478Z,77.82
2023-05-14T06:55:46.390Z,77.88
2023-05-14T06:56:49.180Z,78.12
2023-05-14T06:57:52.285Z,78.15
2023-05-14T06:58:55.098Z,78.23
2023-05-14T07:00:05.695Z,77.94
2023-05-14T07:01:08.579Z,78.02
2023-05-14T07:02:11.915Z,78.17
2023-05-14T07:03:14.889Z,78.12
2023-05-14T07:04:17.777Z,77.65
2023-05-14T07:05:27.483Z,77.90
2023-05-14T07:06:50.531Z,78.30
2023-05-14T07:07:59.894Z,78.21
2023-05-14T07:09:03.587Z,78.26
2023-05-14T07:10:13.544Z,78.29
2023-05-14T07:11:16.915Z,78.68
2023-05-14T07:12:19.808Z,78.64
2023-05-14T07:13:22.626Z,78.75
2023-05-14T07:14:25.493Z,78.71
2023-05-14T07:15:34.530Z,78.44
2023-05-14T07:16:37.629Z,77.71
2023-05-14T07:17:40.523Z,77.32
2023-05-14T07:18:43.477Z,77.60
2023-05-14T07:19:47.036Z,77.81
2023-05-14T07:20:56.539Z,77.82
2023-05-14T07:21:59.443Z,78.34
2023-05-14T07:23:02.361Z,78.56
2023-05-14T07:24:05.802Z,78.80
2023-05-14T07:25:09.100Z,77.80
2023-05-14T07:26:18.534Z,77.97
2023-05-14T07:27:21.576Z,77.06
2023-05-14T07:28:24.443Z,77.69
2023-05-14T07:29:27.925Z,78.02
2023-05-14T07:30:30.744Z,77.60
2023-05-14T07:31:40.583Z,78.05
2023-05-14T07:32:43.640Z,77.52
2023-05-14T07:33:47.462Z,77.67
2023-05-14T07:34:50.382Z,77.85
2023-05-14T07:35:53.467Z,77.99
2023-05-14T07:37:03.560Z,77.87
2023-05-14T07:38:07.538Z,78.00
2023-05-14T07:39:10.339Z,77.58
2023-05-14T07:40:13.381Z,77.86
2023-05-14T07:41:16.400Z,77.42
2023-05-14T07:42:35.360Z,77.80
2023-05-14T07:43:40.160Z,78.35
2023-05-14T07:44:43.005Z,78.16
2023-05-14T07:45:46.882Z,78.14
2023-05-14T07:46:49.764Z,77.96
2023-05-14T07:47:59.817Z,78.45
2023-05-14T07:49:02.764Z,78.27
2023-05-14T07:50:05.829Z,78.23
2023-05-14T07:51:08.721Z,77.99
2023-05-14T07:52:11.521Z,78.04
2023-05-14T07:53:23.342Z,77.74
2023-05-14T07:54:26.314Z,77.80
2023-05-14T07:55:29.195Z,78.12
2023-05-14T07:56:32.078Z,77.87
2023-05-14T07:57:34.970Z,78.39
2023-05-14T07:58:44.661Z,77.63
2023-05-14T07:59:48.661Z,77.51
2023-05-14T08:00:51.648Z,77.68
2023-05-14T08:01:54.572Z,78.06
2023-05-14T08:02:57.621Z,78.05
2023-05-14T08:04:07.960Z,77.23
2023-05-14T08:05:11.773Z,78.00
2023-05-14T08:06:14.658Z,77.68
2023-05-14T08:07:23.731Z,77.91
2023-05-14T08:08:39.589Z,77.84
2023-05-14T08:09:42.421Z,78.04
2023-05-14T08:10:45.304Z,77.85
2023-05-14T08:11:48.192Z,77.43
2023-05-14T08:12:51.089Z,77.51
2023-05-14T08:14:00.658Z,78.14
2023-05-14T08:15:03.749Z,77.78
2023-05-14T08:16:08.466Z,77.93
2023-05-14T08:17:11.487Z,77.97
2023-05-14T08:18:14.368Z,77.81
2023-05-14T08:19:23.655Z,77.56
2023-05-14T08:20:26.706Z,77.16
2023-05-14T08:21:29.670Z,77.34
2023-05-14T08:22:32.462Z,77.72
2023-05-14T08:23:35.315Z,77.99
2023-05-14T08:24:44.674Z,77.58
2023-05-14T08:25:47.552Z,77.52
2023-05-14T08:26:50.423Z,77.91
2023-05-14T08:27:54.913Z,77.91
2023-05-14T08:28:57.736Z,78.43
2023-05-14T08:30:06.684Z,78.63
2023-05-14T08:31:09.822Z,78.60
2023-05-14T08:32:22.635Z,78.82
2023-05-14T08:33:26.574Z,78.51
2023-05-14T08:34:29.985Z,78.24
2023-05-14T08:35:39.674Z,78.08
2023-05-14T08:36:42.625Z,78.09
2023-05-14T08:37:45.433Z,77.88
2023-05-14T08:38:48.221Z,77.64
2023-05-14T08:39:51.090Z,77.25
2023-05-14T08:41:08.720Z,77.34
2023-05-14T08:42:14.083Z,77.71
2023-05-14T08:43:26.321Z,77.67
2023-05-14T08:44:41.314Z,78.94
2023-05-14T08:45:45.002Z,78.31
2023-05-14T08:46:54.704Z,78.27
2023-05-14T08:47:59.808Z,77.96
2023-05-14T08:49:26.390Z,76.98
2023-05-14T08:50:31.357Z,77.62
2023-05-14T08:51:40.745Z,77.73
2023-05-14T08:52:43.602Z,78.05
2023-05-14T08:53:46.850Z,78.62
2023-05-14T08:54:51.922Z,77.72
2023-05-14T08:55:55.335Z,77.67
2023-05-14T08:57:04.798Z,77.92
2023-05-14T08:58:07.669Z,78.26
2023-05-14T08:59:10.545Z,78.00
2023-05-14T09:00:14.359Z,77.66
2023-05-14T09:01:17.690Z,77.76
2023-05-14T09:02:31.749Z,77.20
2023-05-14T09:03:36.127Z,77.41
2023-05-14T09:04:39.540Z,77.99
2023-05-14T09:05:42.939Z,77.90
2023-05-14T09:06:47.699Z,78.16
2023-05-14T09:08:04.709Z,78.28
2023-05-14T09:09:08.209Z,78.66
2023-05-14T09:10:11.730Z,78.37
2023-05-14T09:11:14.574Z,77.81
2023-05-14T09:12:17.985Z,78.51
2023-05-14T09:13:28.398Z,78.28
2023-05-14T09:14:31.354Z,78.18
2023-05-14T09:15:36.276Z,78.11
2023-05-14T09:16:41.092Z,78.11
2023-05-14T09:17:44.933Z,77.86
2023-05-14T09:18:54.801Z,77.51
2023-05-14T09:19:57.811Z,77.73
2023-05-14T09:21:00.672Z,78.24
2023-05-14T09:22:03.670Z,78.20
2023-05-14T09:23:06.521Z,78.08
2023-05-14T09:24:16.829Z,77.95
2023-05-14T09:25:19.666Z,78.33
2023-05-14T09:26:26.690Z,77.76
2023-05-14T09:27:32.553Z,77.82
2023-05-14T09:28:35.435Z,78.23
2023-05-14T09:29:44.764Z,78.53
2023-05-14T09:30:53.803Z,78.63
2023-05-14T09:31:58.329Z,79.07
2023-05-14T09:33:01.219Z,79.69
2023-05-14T09:34:04.088Z,79.32
2023-05-14T09:35:22.873Z,79.31
2023-05-14T09:36:29.046Z,79.26
2023-05-14T09:37:32.020Z,79.09
2023-05-14T09:38:35.497Z,79.11
2023-05-14T09:39:45.786Z,79.28
2023-05-14T09:40:48.591Z,79.44
2023-05-14T09:41:53.114Z,79.45
2023-05-14T09:42:56.149Z,79.46
2023-05-14T09:43:59.333Z,79.27
2023-05-14T09:45:09.847Z,78.64
2023-05-14T09:46:12.650Z,78.48
2023-05-14T09:47:17.002Z,78.74
2023-05-14T09:48:20.574Z,78.56
2023-05-14T09:49:24.357Z,78.46
2023-05-14T09:50:33.837Z,79.33
2023-05-14T09:51:38.525Z,79.22
2023-05-14T09:52:41.532Z,79.11
2023-05-14T09:53:46.018Z,78.89
2023-05-14T09:54:49.301Z,78.36
2023-05-14T09:55:58.864Z,78.45
2023-05-14T09:57:02.323Z,78.36
2023-05-14T09:58:05.994Z,78.25
2023-05-14T09:59:08.799Z,78.16
2023-05-14T10:00:13.909Z,78.28
2023-05-14T10:01:26.934Z,78.24
2023-05-14T10:02:39.033Z,78.45
2023-05-14T10:03:42.250Z,78.72
2023-05-14T10:04:46.293Z,78.93
2023-05-14T10:05:50.858Z,79.09
2023-05-14T10:07:01.884Z,79.06
2023-05-14T10:08:38.915Z,79.20
2023-05-14T10:09:44.342Z,79.42
2023-05-14T10:10:47.161Z,79.46
2023-05-14T10:12:00.914Z,79.76
2023-05-14T10:13:14.088Z,79.49
2023-05-14T10:14:26.223Z,79.19
2023-05-14T10:15:36.706Z,79.75
2023-05-14T10:16:44.976Z,79.21
2023-05-14T10:18:01.000Z,79.41
2023-05-14T10:19:14.225Z,79.32
2023-05-14T10:20:18.668Z,79.17
2023-05-14T10:21:23.699Z,79.69
2023-05-14T10:22:35.906Z,79.36
2023-05-14T10:23:39.835Z,79.62
2023-05-14T10:24:43.231Z,80.24
2023-05-14T10:25:46.944Z,80.15
2023-05-14T10:26:50.261Z,80.09
2023-05-14T10:28:00.278Z,79.46
2023-05-14T10:29:03.952Z,79.65
2023-05-14T10:30:16.484Z,80.04
2023-05-14T10:31:19.378Z,79.63
2023-05-14T10:32:27.108Z,79.41
2023-05-14T10:33:36.950Z,78.67
2023-05-14T10:34:47.616Z,78.59
2023-05-14T10:36:01.963Z,78.13
2023-05-14T10:37:09.844Z,78.50
2023-05-14T10:38:22.945Z,78.50
2023-05-14T10:39:40.972Z,78.63
2023-05-14T10:40:43.915Z,77.57
2023-05-14T10:41:46.784Z,78.28
2023-05-14T10:42:49.974Z,78.11
2023-05-14T10:44:00.008Z,78.33
2023-05-14T10:45:10.385Z,78.23
2023-05-14T10:46:14.828Z,78.17
2023-05-14T10:47:19.180Z,77.79
2023-05-14T10:48:28.984Z,78.34
2023-05-14T10:49:43.082Z,78.17
2023-05-14T10:50:49.888Z,77.98
2023-05-14T10:51:54.982Z,77.70
2023-05-14T10:52:58.514Z,77.87
2023-05-14T10:54:08.970Z,78.37
2023-05-14T10:55:15.796Z,78.25
2023-05-14T10:56:18.701Z,78.57
2023-05-14T10:57:23.917Z,78.80
2023-05-14T10:58:27.259Z,78.48
2023-05-14T10:59:37.025Z,78.45
2023-05-14T11:00:40.730Z,78.24
2023-05-14T11:01:44.296Z,77.60
2023-05-14T11:02:48.065Z,77.63
2023-05-14T11:03:55.200Z,77.52
2023-05-14T11:05:12.977Z,77.60
2023-05-14T11:06:17.241Z,77.51
2023-05-14T11:07:26.055Z,77.47
2023-05-14T11:08:49.041Z,77.59
2023-05-14T11:10:00.016Z,77.49
2023-05-14T11:11:03.739Z,77.51
2023-05-14T11:12:06.924Z,77.43
2023-05-14T11:13:09.821Z,77.42
2023-05-14T11:14:20.024Z,77.66
2023-05-14T11:15:24.803Z,77.74
2023-05-14T11:16:32.133Z,77.65
2023-05-14T11:17:37.239Z,77.72
2023-05-14T11:18:42.163Z,78.02
2023-05-14T11:19:54.055Z,77.33
2023-05-14T11:21:01.360Z,77.12
2023-05-14T11:22:04.694Z,77.39
2023-05-14T11:23:07.535Z,77.51
2023-05-14T11:24:10.431Z,77.51
2023-05-14T11:25:22.081Z,77.71
2023-05-14T11:26:25.340Z,77.20
2023-05-14T11:27:28.423Z,77.27
2023-05-14T11:28:31.447Z,77.74
2023-05-14T11:29:34.564Z,77.50
2023-05-14T11:30:44.104Z,77.81
2023-05-14T11:31:47.008Z,77.64
2023-05-14T11:32:51.319Z,77.53
2023-05-14T11:33:54.765Z,77.49
2023-05-14T11:35:04.103Z,77.52
2023-05-14T11:36:07.258Z,77.54
2023-05-14T11:37:11.387Z,77.72
2023-05-14T11:38:21.387Z,77.21
2023-05-14T11:39:24.798Z,77.62
2023-05-14T11:40:34.132Z,77.08
2023-05-14T11:41:36.997Z,77.77
2023-05-14T11:42:40.149Z,77.22
2023-05-14T11:43:43.428Z,77.43
2023-05-14T11:44:52.976Z,77.49
2023-05-14T11:46:03.151Z,77.83
2023-05-14T11:47:06.975Z,77.40
2023-05-14T11:48:19.276Z,77.35
2023-05-14T11:49:26.210Z,77.91
2023-05-14T11:50:29.262Z,77.66
2023-05-14T11:51:40.111Z,77.49
2023-05-14T11:52:43.102Z,78.09
2023-05-14T11:53:46.840Z,77.95
2023-05-14T11:54:53.073Z,78.08
2023-05-14T11:55:56.597Z,78.25
2023-05-14T11:57:09.251Z,78.36
2023-05-14T11:58:12.168Z,78.72
2023-05-14T11:59:15.014Z,78.70
2023-05-14T12:00:22.795Z,78.49
2023-05-14T12:01:25.982Z,78.60
2023-05-14T12:02:38.328Z,78.66
2023-05-14T12:03:41.470Z,78.68
2023-05-14T12:04:45.386Z,78.02
2023-05-14T12:06:01.095Z,78.97
2023-05-14T12:07:14.072Z,78.92
2023-05-14T12:08:31.158Z,79.32
2023-05-14T12:09:50.495Z,79.47
2023-05-14T12:10:55.033Z,78.91
2023-05-14T12:11:57.915Z,79.45
2023-05-14T12:13:06.912Z,79.32
2023-05-14T12:14:35.164Z,79.90
2023-05-14T12:15:38.168Z,80.04
2023-05-14T12:16:42.966Z,80.03
2023-05-14T12:17:53.493Z,79.76
2023-05-14T12:19:00.525Z,80.02
2023-05-14T12:20:10.182Z,80.43
2023-05-14T12:21:13.380Z,80.09
2023-05-14T12:22:22.549Z,79.90
2023-05-14T12:23:30.127Z,79.61
2023-05-14T12:24:33.002Z,79.57
2023-05-14T12:25:42.205Z,80.05
2023-05-14T12:26:52.169Z,80.35
2023-05-14T12:27:54.993Z,80.34
2023-05-14T12:29:02.505Z,80.49
2023-05-14T12:31:27.793Z,80.71
2023-05-14T12:32:36.361Z,80.48
2023-05-14T12:33:39.255Z,80.52
2023-05-14T12:34:42.750Z,80.69
2023-05-14T12:35:45.681Z,80.58
2023-05-14T12:36:55.271Z,80.39
2023-05-14T12:37:58.457Z,80.23
2023-05-14T12:39:04.460Z,80.36
2023-05-14T12:40:10.707Z,80.73
2023-05-14T12:41:13.572Z,80.71
2023-05-14T12:42:24.273Z,80.26
2023-05-14T12:43:32.706Z,80.34
2023-05-14T12:44:35.620Z,80.49
2023-05-14T12:45:38.761Z,80.34
2023-05-14T12:46:41.717Z,80.35
2023-05-14T12:47:51.332Z,80.74
2023-05-14T12:48:55.162Z,80.73
2023-05-14T12:49:58.380Z,80.72
2023-05-14T12:51:01.237Z,81.16
2023-05-14T12:52:19.861Z,80.91
2023-05-14T12:53:34.260Z,81.38
2023-05-14T12:54:37.085Z,81.78
2023-05-14T12:55:40.724Z,81.52
2023-05-14T12:56:43.854Z,81.49
2023-05-14T12:57:47.009Z,81.75
2023-05-14T12:58:56.410Z,81.79
2023-05-14T12:59:59.699Z,81.71
2023-05-14T13:01:03.191Z,81.88
2023-05-14T13:02:06.685Z,82.40
2023-05-14T13:03:10.374Z,81.66
2023-05-14T13:04:24.919Z,82.14
2023-05-14T13:05:28.724Z,82.09
2023-05-14T13:06:36.195Z,82.30
2023-05-14T13:07:41.791Z,82.20
2023-05-14T13:08:56.093Z,82.01
2023-05-14T13:10:16.226Z,81.91
2023-05-14T13:11:22.311Z,82.12
2023-05-14T13:12:30.477Z,82.09
2023-05-14T13:13:34.817Z,82.18
2023-05-14T13:14:41.859Z,82.32
2023-05-14T13:15:54.626Z,82.33
2023-05-14T13:16:59.796Z,82.46
2023-05-14T13:18:05.134Z,82.42
2023-05-14T13:19:12.122Z,82.51
2023-05-14T13:20:43.702Z,82.67
2023-05-14T13:21:58.134Z,82.88
2023-05-14T13:23:02.897Z,83.03
2023-05-14T13:24:17.458Z,82.83
2023-05-14T13:25:25.768Z,82.90
2023-05-14T13:26:44.127Z,83.09
2023-05-14T13:28:10.114Z,82.46
2023-05-14T13:29:16.870Z,82.79
2023-05-14T13:30:21.783Z,82.81
2023-05-14T13:31:26.240Z,82.71
2023-05-14T13:32:30.771Z,82.75
2023-05-14T13:33:47.230Z,82.95
2023-05-14T13:34:54.023Z,82.79
2023-05-14T13:35:58.402Z,82.80
2023-05-14T13:37:02.580Z,82.29
2023-05-14T13:38:13.085Z,82.73
2023-05-14T13:39:17.467Z,82.95
2023-05-14T13:40:21.602Z,82.81
2023-05-14T13:41:24.501Z,82.70
2023-05-14T13:42:27.405Z,82.95
2023-05-14T13:43:41.405Z,83.03
2023-05-14T13:44:44.312Z,83.05
2023-05-14T13:45:49.109Z,82.95
2023-05-14T13:46:52.007Z,82.90
2023-05-14T13:47:55.017Z,83.17
2023-05-14T13:49:04.398Z,82.95
2023-05-14T13:50:07.793Z,82.75
2023-05-14T13:51:11.073Z,83.26
2023-05-14T13:52:14.020Z,82.76
2023-05-14T13:53:16.986Z,83.08
2023-05-14T13:54:26.490Z,83.35
2023-05-14T13:55:29.324Z,83.00
2023-05-14T13:56:32.637Z,83.21
2023-05-14T13:57:35.463Z,83.39
2023-05-14T13:58:38.454Z,83.08
2023-05-14T13:59:48.404Z,83.06
2023-05-14T14:00:51.629Z,83.17
2023-05-14T14:01:54.544Z,83.35
2023-05-14T14:02:57.474Z,83.43
2023-05-14T14:04:00.349Z,83.42
2023-05-14T14:05:09.605Z,83.87
2023-05-14T14:06:13.639Z,83.71
2023-05-14T14:07:17.851Z,83.77
2023-05-14T14:08:27.913Z,83.79
2023-05-14T14:09:44.479Z,83.82
2023-05-14T14:10:47.874Z,83.88
2023-05-14T14:11:50.860Z,83.92
2023-05-14T14:12:54.084Z,84.09
2023-05-14T14:13:56.995Z,84.03
2023-05-14T14:15:06.434Z,84.08